createdAt,value
2023-04-20T00:01:57.178Z,5.31
2023-04-20T00:04:25.979Z,5.26
2023-04-20T00:06:54.457Z,5.32
2023-04-20T00:09:22.960Z,5.27
2023-04-20T00:11:51.602Z,5.34
2023-04-20T00:14:20.801Z,5.34
2023-04-20T00:16:50.505Z,5.20
2023-04-20T00:19:19.426Z,5.19
2023-04-20T00:21:48.914Z,5.23
2023-04-20T00:24:17.805Z,5.26
2023-04-20T00:26:46.343Z,5.25
2023-04-20T00:29:15.184Z,5.27
2023-04-20T00:31:44.106Z,5.19
2023-04-20T00:34:12.623Z,5.30
2023-04-20T00:36:41.220Z,5.27
2023-04-20T00:39:09.666Z,5.23
2023-04-20T00:41:38.233Z,5.23
2023-04-20T00:44:11.531Z,5.29
2023-04-20T00:46:40.063Z,5.36
2023-04-20T00:49:08.942Z,5.39
2023-04-20T00:51:38.178Z,5.46
2023-04-20T00:54:06.985Z,5.50
2023-04-20T00:56:35.718Z,5.43
2023-04-20T00:59:04.567Z,5.49
2023-04-20T01:01:33.433Z,5.44
2023-04-20T01:04:02.004Z,5.45
2023-04-20T01:06:30.761Z,5.41
2023-04-20T01:08:59.456Z,5.45
2023-04-20T01:11:27.907Z,5.44
2023-04-20T01:13:56.566Z,5.40
2023-04-20T01:16:25.405Z,5.43
2023-04-20T01:18:53.678Z,5.50
2023-04-20T01:21:23.501Z,5.50
2023-04-20T01:23:52.025Z,5.45
2023-04-20T01:26:24.075Z,5.45
2023-04-20T01:28:52.992Z,5.50
2023-04-20T01:31:22.184Z,5.52
2023-04-20T01:33:50.702Z,5.44
2023-04-20T01:36:19.332Z,5.44
2023-04-20T01:38:48.314Z,5.44
2023-04-20T01:41:17.083Z,5.38
2023-04-20T01:43:45.644Z,5.38
2023-04-20T01:46:14.480Z,5.40
2023-04-20T01:48:43.044Z,5.36
2023-04-20T01:51:11.635Z,5.36
2023-04-20T01:53:41.097Z,5.32
2023-04-20T01:56:09.646Z,5.29
2023-04-20T01:58:38.239Z,5.31
2023-04-20T02:01:09.873Z,5.27
2023-04-20T02:03:38.599Z,5.27
2023-04-20T02:06:07.561Z,5.23
2023-04-20T02:08:36.187Z,5.30
2023-04-20T02:11:04.678Z,5.28
2023-04-20T02:13:33.921Z,5.31
2023-04-20T02:16:02.453Z,5.24
2023-04-20T02:18:32.982Z,5.24
2023-04-20T02:21:02.342Z,5.18
2023-04-20T02:23:31.663Z,5.20
2023-04-20T02:26:00.211Z,5.17
2023-04-20T02:28:28.661Z,5.16
2023-04-20T02:30:57.115Z,5.24
2023-04-20T02:33:25.646Z,5.22
2023-04-20T02:35:54.145Z,5.20
2023-04-20T02:38:22.619Z,5.23
2023-04-20T02:40:51.156Z,5.22
2023-04-20T02:43:19.619Z,5.26
2023-04-20T02:45:48.289Z,5.21
2023-04-20T02:48:16.825Z,5.26
2023-04-20T02:50:45.281Z,5.21
2023-04-20T02:53:13.785Z,5.35
2023-04-20T02:55:42.657Z,5.32
2023-04-20T02:58:11.485Z,5.27
2023-04-20T03:00:40.092Z,5.27
2023-04-20T03:03:08.878Z,5.35
2023-04-20T03:05:37.526Z,5.32
2023-04-20T03:08:07.176Z,5.36
2023-04-20T03:10:35.758Z,5.39
2023-04-20T03:13:04.234Z,5.38
2023-04-20T03:15:33.058Z,5.39
2023-04-20T03:18:01.627Z,5.41
2023-04-20T03:20:30.238Z,5.47
2023-04-20T03:22:58.811Z,5.44
2023-04-20T03:25:27.398Z,5.43
2023-04-20T03:27:56.012Z,5.39
2023-04-20T03:30:24.743Z,5.42
2023-04-20T03:32:53.290Z,5.38
2023-04-20T03:35:22.314Z,5.38
2023-04-20T03:37:50.977Z,5.35
2023-04-20T03:40:19.588Z,5.36
2023-04-20T03:42:48.087Z,5.35
2023-04-20T03:45:17.419Z,5.32
2023-04-20T03:47:46.008Z,5.44
2023-04-20T03:50:14.901Z,5.42
2023-04-20T03:52:43.427Z,5.43
2023-04-20T03:55:12.085Z,5.50
2023-04-20T03:57:40.661Z,5.42
2023-04-20T04:00:10.879Z,5.42
2023-04-20T04:02:39.497Z,5.44
2023-04-20T04:05:08.746Z,5.46
2023-04-20T04:07:37.229Z,5.56
2023-04-20T04:10:06.396Z,5.51
2023-04-20T04:12:34.881Z,5.49
2023-04-20T04:15:03.687Z,5.46
2023-04-20T04:17:31.891Z,5.48
2023-04-20T04:20:00.372Z,5.55
2023-04-20T04:22:30.572Z,5.61
2023-04-20T04:24:59.140Z,5.58
2023-04-20T04:27:29.887Z,5.59
2023-04-20T04:29:58.384Z,5.62
2023-04-20T04:32:27.055Z,5.62
2023-04-20T04:34:56.180Z,5.54
2023-04-20T04:37:24.953Z,5.53
2023-04-20T04:39:53.446Z,5.56
2023-04-20T04:42:22.472Z,5.58
2023-04-20T04:44:52.261Z,5.64
2023-04-20T04:47:22.165Z,5.64
2023-04-20T04:49:51.461Z,5.57
2023-04-20T04:52:19.876Z,5.66
2023-04-20T04:54:49.455Z,5.46
2023-04-20T04:57:17.924Z,5.60
2023-04-20T04:59:46.391Z,5.51
2023-04-20T05:02:14.993Z,5.54
2023-04-20T05:04:43.668Z,5.47
2023-04-20T05:07:12.230Z,5.62
2023-04-20T05:09:40.996Z,5.58
2023-04-20T05:12:09.614Z,5.45
2023-04-20T05:14:38.165Z,5.52
2023-04-20T05:17:06.696Z,5.52
2023-04-20T05:19:35.240Z,5.55
2023-04-20T05:22:03.721Z,5.57
2023-04-20T05:24:32.286Z,5.63
2023-04-20T05:27:00.791Z,5.66
2023-04-20T05:29:29.261Z,5.72
2023-04-20T05:31:57.804Z,5.67
2023-04-20T05:34:26.392Z,5.66
2023-04-20T05:36:57.020Z,5.71
2023-04-20T05:39:25.510Z,5.71
2023-04-20T05:41:54.134Z,5.76
2023-04-20T05:44:22.592Z,5.76
2023-04-20T05:46:51.095Z,5.79
2023-04-20T05:49:19.783Z,5.80
2023-04-20T05:51:48.363Z,5.90
2023-04-20T05:54:16.854Z,5.96
2023-04-20T05:56:45.615Z,5.93
2023-04-20T05:59:14.111Z,5.93
2023-04-20T06:01:42.606Z,5.94
2023-04-20T06:04:11.643Z,5.91
2023-04-20T06:06:40.485Z,6.00
2023-04-20T06:09:09.054Z,5.99
2023-04-20T06:11:37.653Z,6.01
2023-04-20T06:14:06.173Z,6.08
2023-04-20T06:16:34.719Z,6.04
2023-04-20T06:19:03.249Z,5.98
2023-04-20T06:21:32.326Z,6.10
2023-04-20T06:24:00.892Z,6.23
2023-04-20T06:26:29.375Z,6.22
2023-04-20T06:28:57.834Z,6.26
2023-04-20T06:31:26.155Z,6.25
2023-04-20T06:33:54.703Z,6.18
2023-04-20T06:36:23.154Z,6.09
2023-04-20T06:38:51.948Z,6.05
2023-04-20T06:41:20.088Z,5.92
2023-04-20T06:43:48.595Z,6.09
2023-04-20T06:46:17.134Z,5.92
2023-04-20T06:48:45.614Z,6.09
2023-04-20T06:51:15.063Z,6.11
2023-04-20T06:53:43.923Z,6.05
2023-04-20T06:56:12.596Z,6.05
2023-04-20T06:58:41.668Z,5.89
2023-04-20T07:01:10.736Z,5.83
2023-04-20T07:03:39.653Z,5.74
2023-04-20T07:06:11.140Z,5.70
2023-04-20T07:08:41.146Z,5.78
2023-04-20T07:11:09.651Z,5.71
2023-04-20T07:13:38.441Z,5.55
2023-04-20T07:16:07.213Z,5.58
2023-04-20T07:18:35.953Z,5.60
2023-04-20T07:21:04.511Z,5.60
2023-04-20T07:23:32.998Z,5.61
2023-04-20T07:26:01.468Z,5.63
2023-04-20T07:28:30.019Z,5.66
2023-04-20T07:30:59.506Z,5.82
2023-04-20T07:33:29.846Z,6.21
2023-04-20T07:35:58.588Z,6.45
2023-04-20T07:38:27.058Z,6.75
2023-04-20T07:40:55.574Z,6.82
2023-04-20T07:43:24.021Z,7.12
2023-04-20T07:45:52.575Z,7.30
2023-04-20T07:48:21.187Z,7.21
2023-04-20T07:50:49.670Z,7.28
2023-04-20T07:53:18.129Z,7.31
2023-04-20T07:55:47.166Z,7.11
2023-04-20T07:58:17.564Z,7.18
2023-04-20T08:00:47.752Z,7.22
2023-04-20T08:03:16.834Z,7.10
2023-04-20T08:05:45.381Z,7.11
2023-04-20T08:08:13.878Z,7.10
2023-04-20T08:10:42.307Z,7.11
2023-04-20T08:13:10.807Z,7.26
2023-04-20T08:15:38.978Z,7.33
2023-04-20T08:18:07.563Z,7.45
2023-04-20T08:20:36.063Z,7.69
2023-04-20T08:23:04.561Z,7.92
2023-04-20T08:25:33.039Z,8.13
2023-04-20T08:28:02.731Z,8.37
2023-04-20T08:30:31.622Z,8.36
2023-04-20T08:33:00.683Z,8.71
2023-04-20T08:35:29.275Z,9.17
2023-04-20T08:37:57.749Z,9.37
2023-04-20T08:40:28.300Z,9.34
2023-04-20T08:42:57.705Z,9.30
2023-04-20T08:45:27.011Z,9.34
2023-04-20T08:47:55.913Z,9.36
2023-04-20T08:50:24.518Z,9.36
2023-04-20T08:52:53.017Z,9.18
2023-04-20T08:55:21.866Z,9.19
2023-04-20T08:57:51.309Z,9.23
2023-04-20T09:00:20.775Z,9.34
2023-04-20T09:02:54.661Z,9.31
2023-04-20T09:05:30.953Z,9.06
2023-04-20T09:08:02.048Z,8.98
2023-04-20T09:10:45.441Z,8.79
2023-04-20T09:13:24.253Z,8.51
2023-04-20T09:15:52.813Z,8.56
2023-04-20T09:18:21.415Z,8.52
2023-04-20T09:20:49.651Z,8.63
2023-04-20T09:23:20.590Z,8.78
2023-04-20T09:25:53.313Z,8.69
2023-04-20T09:28:21.782Z,8.80
2023-04-20T09:30:51.756Z,8.93
2023-04-20T09:33:20.402Z,9.02
2023-04-20T09:35:48.528Z,8.98
2023-04-20T09:38:18.157Z,8.85
2023-04-20T09:40:46.759Z,9.16
2023-04-20T09:43:26.091Z,9.32
2023-04-20T09:45:54.739Z,9.59
2023-04-20T09:48:23.379Z,9.67
2023-04-20T09:50:52.054Z,9.67
2023-04-20T09:53:21.115Z,9.76
2023-04-20T09:55:52.192Z,9.72
2023-04-20T09:58:21.644Z,9.76
2023-04-20T10:00:51.150Z,9.81
2023-04-20T10:03:22.407Z,9.81
2023-04-20T10:05:53.006Z,9.72
2023-04-20T10:08:24.416Z,9.74
2023-04-20T10:10:53.061Z,9.55
2023-04-20T10:13:23.273Z,9.66
2023-04-20T10:15:52.174Z,9.82
2023-04-20T10:18:25.338Z,9.68
2023-04-20T10:21:06.298Z,9.83
2023-04-20T10:23:34.827Z,9.95
2023-04-20T10:26:04.025Z,10.08
2023-04-20T10:28:42.949Z,9.96
2023-04-20T10:31:13.768Z,10.24
2023-04-20T10:33:56.851Z,10.39
2023-04-20T10:36:34.461Z,10.36
2023-04-20T10:39:05.298Z,10.36
2023-04-20T10:41:33.790Z,10.10
2023-04-20T10:44:09.628Z,10.29
2023-04-20T10:46:38.401Z,10.28
2023-04-20T10:49:06.865Z,10.21
2023-04-20T10:51:36.407Z,10.36
2023-04-20T10:54:08.802Z,10.36
2023-04-20T10:56:47.647Z,10.27
2023-04-20T10:59:22.023Z,10.38
2023-04-20T11:01:51.645Z,10.13
2023-04-20T11:04:20.842Z,9.97
2023-04-20T11:06:49.528Z,9.82
2023-04-20T11:09:22.885Z,9.82
2023-04-20T11:12:06.368Z,9.72
2023-04-20T11:15:00.488Z,9.57
2023-04-20T11:17:36.551Z,9.46
2023-04-20T11:20:11.062Z,9.29
2023-04-20T11:22:40.779Z,9.26
2023-04-20T11:25:11.468Z,9.33
2023-04-20T11:27:40.900Z,9.20
2023-04-20T11:30:10.206Z,9.13
2023-04-20T11:32:39.193Z,9.12
2023-04-20T11:35:11.370Z,9.02
2023-04-20T11:37:51.461Z,8.83
2023-04-20T11:40:20.464Z,8.78
2023-04-20T11:42:49.047Z,8.78
2023-04-20T11:45:17.939Z,8.74
2023-04-20T11:47:47.478Z,8.52
2023-04-20T11:50:15.794Z,8.54
2023-04-20T11:52:44.252Z,8.43
2023-04-20T11:55:12.829Z,8.39
2023-04-20T11:57:41.084Z,8.45
2023-04-20T12:00:10.267Z,8.38
2023-04-20T12:02:39.067Z,8.35
2023-04-20T12:05:08.695Z,8.39
2023-04-20T12:07:37.406Z,8.37
2023-04-20T12:10:06.124Z,8.51
2023-04-20T12:12:35.255Z,8.66
2023-04-20T12:15:03.843Z,8.69
2023-04-20T12:17:32.010Z,8.67
2023-04-20T12:20:00.601Z,8.70
2023-04-20T12:22:29.189Z,8.91
2023-04-20T12:24:57.661Z,8.90
2023-04-20T12:27:26.758Z,8.71
2023-04-20T12:29:54.798Z,8.80
2023-04-20T12:32:23.249Z,8.95
2023-04-20T12:34:51.905Z,8.95
2023-04-20T12:37:21.018Z,8.97
2023-04-20T12:39:49.505Z,8.92
2023-04-20T12:42:17.996Z,8.92
2023-04-20T12:44:46.494Z,8.89
2023-04-20T12:47:16.555Z,8.75
2023-04-20T12:49:44.638Z,8.89
2023-04-20T12:52:13.324Z,8.98
2023-04-20T12:54:43.970Z,8.98
2023-04-20T12:57:13.112Z,8.97
2023-04-20T12:59:41.741Z,8.96
2023-04-20T13:02:10.926Z,8.91
2023-04-20T13:04:39.215Z,8.70
2023-04-20T13:07:07.973Z,8.69
2023-04-20T13:09:36.074Z,8.65
2023-04-20T13:12:04.702Z,8.66
2023-04-20T13:14:33.245Z,8.63
2023-04-20T13:17:02.620Z,8.63
2023-04-20T13:19:31.921Z,8.56
2023-04-20T13:22:00.843Z,8.58
2023-04-20T13:24:29.421Z,8.62
2023-04-20T13:26:58.273Z,8.58
2023-04-20T13:29:27.369Z,8.61
2023-04-20T13:31:55.979Z,8.62
2023-04-20T13:34:24.653Z,8.56
2023-04-20T13:36:53.308Z,8.55
2023-04-20T13:39:22.071Z,8.60
2023-04-20T13:41:50.655Z,8.55
2023-04-20T13:44:19.524Z,8.56
2023-04-20T13:46:48.743Z,8.67
2023-04-20T13:49:17.839Z,8.56
2023-04-20T13:51:46.390Z,8.44
2023-04-20T13:54:14.885Z,8.51
2023-04-20T13:56:43.336Z,8.31
2023-04-20T13:59:11.796Z,8.49
2023-04-20T14:01:40.351Z,8.51
2023-04-20T14:04:11.144Z,8.48
2023-04-20T14:06:40.042Z,8.50
2023-04-20T14:09:08.908Z,8.55
2023-04-20T14:11:37.484Z,8.57
2023-04-20T14:14:06.190Z,8.72
2023-04-20T14:16:34.816Z,8.74
2023-04-20T14:19:04.581Z,8.75
2023-04-20T14:21:33.897Z,8.82
2023-04-20T14:24:02.343Z,8.85
2023-04-20T14:26:30.866Z,8.99
2023-04-20T14:28:59.372Z,9.04
2023-04-20T14:31:27.470Z,9.15
2023-04-20T14:33:56.132Z,9.16
2023-04-20T14:36:24.701Z,9.26
2023-04-20T14:38:54.312Z,9.35
2023-04-20T14:41:23.129Z,9.37
2023-04-20T14:43:51.652Z,9.39
2023-04-20T14:46:20.393Z,9.42
2023-04-20T14:48:49.099Z,9.39
2023-04-20T14:51:19.779Z,9.42
2023-04-20T14:53:48.257Z,9.37
2023-04-20T14:56:16.817Z,9.41
2023-04-20T14:58:45.329Z,9.43
2023-04-20T15:01:14.784Z,9.55
2023-04-20T15:03:43.747Z,9.55
2023-04-20T15:06:12.597Z,9.66
2023-04-20T15:08:41.073Z,9.56
2023-04-20T15:11:09.581Z,9.64
2023-04-20T15:13:41.121Z,9.67
2023-04-20T15:16:10.169Z,9.62
2023-04-20T15:18:38.615Z,9.61
2023-04-20T15:21:08.421Z,9.76
2023-04-20T15:23:36.947Z,9.83
2023-04-20T15:26:05.613Z,9.96
2023-04-20T15:28:34.105Z,9.97
2023-04-20T15:31:02.623Z,10.00
2023-04-20T15:33:31.137Z,10.09
2023-04-20T15:35:59.692Z,10.09
2023-04-20T15:38:27.792Z,10.17
2023-04-20T15:40:56.332Z,10.22
2023-04-20T15:43:24.879Z,10.21
2023-04-20T15:45:53.428Z,10.30
2023-04-20T15:48:21.969Z,10.44
2023-04-20T15:50:53.817Z,10.49
2023-04-20T15:53:24.242Z,10.53
2023-04-20T15:55:52.319Z,10.56
2023-04-20T15:58:20.978Z,10.50
2023-04-20T16:00:49.736Z,10.57
2023-04-20T16:03:18.153Z,10.59
2023-04-20T16:05:46.836Z,10.63
2023-04-20T16:08:15.376Z,10.63
2023-04-20T16:10:44.134Z,10.70
2023-04-20T16:13:12.686Z,10.77
2023-04-20T16:15:41.641Z,10.70
2023-04-20T16:18:12.384Z,10.72
2023-04-20T16:20:41.467Z,10.71
2023-04-20T16:23:09.775Z,10.64
2023-04-20T16:25:38.584Z,10.65
2023-04-20T16:28:06.978Z,10.69
2023-04-20T16:30:36.978Z,10.68
2023-04-20T16:33:05.994Z,10.57
2023-04-20T16:35:34.456Z,10.54
2023-04-20T16:38:03.090Z,10.48
2023-04-20T16:40:32.080Z,10.51
2023-04-20T16:43:01.931Z,10.54
2023-04-20T16:45:30.477Z,10.49
2023-04-20T16:47:59.949Z,10.50
2023-04-20T16:50:28.352Z,10.45
2023-04-20T16:52:56.927Z,10.44
2023-04-20T16:55:26.454Z,10.46
2023-04-20T16:57:59.819Z,10.34
2023-04-20T17:00:33.221Z,10.30
2023-04-20T17:03:02.348Z,10.31
2023-04-20T17:05:30.978Z,10.38
2023-04-20T17:07:59.604Z,10.38
2023-04-20T17:10:28.029Z,10.37
2023-04-20T17:12:56.536Z,10.44
2023-04-20T17:15:25.141Z,10.35
2023-04-20T17:17:53.268Z,10.33
2023-04-20T17:20:22.029Z,10.41
2023-04-20T17:22:50.304Z,10.46
2023-04-20T17:25:19.448Z,10.44
2023-04-20T17:27:47.908Z,10.36
2023-04-20T17:30:16.808Z,10.39
2023-04-20T17:32:45.629Z,10.39
2023-04-20T17:35:13.901Z,10.30
2023-04-20T17:37:42.480Z,10.23
2023-04-20T17:40:11.336Z,10.31
2023-04-20T17:42:40.282Z,10.24
2023-04-20T17:45:09.378Z,10.20
2023-04-20T17:47:41.132Z,10.16
2023-04-20T17:50:13.976Z,10.11
2023-04-20T17:52:42.680Z,10.09
2023-04-20T17:55:11.346Z,10.11
2023-04-20T17:57:42.738Z,10.12
2023-04-20T18:00:12.661Z,10.10
2023-04-20T18:02:41.707Z,10.07
2023-04-20T18:05:11.133Z,10.06
2023-04-20T18:07:39.642Z,10.03
2023-04-20T18:10:08.976Z,10.01
2023-04-20T18:12:37.706Z,9.96
2023-04-20T18:15:08.344Z,9.94
2023-04-20T18:17:37.307Z,9.92
2023-04-20T18:20:08.669Z,9.89
2023-04-20T18:22:38.538Z,9.86
2023-04-20T18:25:07.419Z,9.80
2023-04-20T18:27:36.312Z,9.81
2023-04-20T18:30:05.071Z,9.79
2023-04-20T18:32:33.384Z,9.77
2023-04-20T18:35:02.234Z,9.77
2023-04-20T18:37:30.441Z,9.78
2023-04-20T18:40:00.052Z,9.76
2023-04-20T18:42:30.819Z,9.72
2023-04-20T18:44:59.336Z,9.70
2023-04-20T18:47:29.577Z,9.69
2023-04-20T18:49:57.725Z,9.67
2023-04-20T18:52:26.897Z,9.66
2023-04-20T18:54:55.984Z,9.66
2023-04-20T18:57:27.110Z,9.69
2023-04-20T18:59:58.272Z,9.66
2023-04-20T19:02:27.092Z,9.63
2023-04-20T19:04:56.105Z,9.62
2023-04-20T19:07:25.226Z,9.61
2023-04-20T19:09:53.689Z,9.60
2023-04-20T19:12:22.684Z,9.65
2023-04-20T19:14:51.404Z,9.67
2023-04-20T19:17:19.778Z,9.65
2023-04-20T19:19:50.990Z,9.63
2023-04-20T19:22:19.305Z,9.64
2023-04-20T19:24:48.083Z,9.60
2023-04-20T19:27:16.486Z,9.56
2023-04-20T19:29:44.953Z,9.58
2023-04-20T19:32:13.361Z,9.53
2023-04-20T19:34:42.249Z,9.53
2023-04-20T19:37:10.976Z,9.51
2023-04-20T19:39:39.513Z,9.49
2023-04-20T19:42:08.074Z,9.48
2023-04-20T19:44:37.069Z,9.47
2023-04-20T19:47:05.703Z,9.46
2023-04-20T19:49:34.352Z,9.47
2023-04-20T19:52:03.152Z,9.47
2023-04-20T19:54:31.814Z,9.47
2023-04-20T19:57:00.069Z,9.45
2023-04-20T19:59:30.072Z,9.41
2023-04-20T20:01:59.022Z,9.43
2023-04-20T20:04:27.842Z,9.50
2023-04-20T20:06:56.961Z,9.49
2023-04-20T20:09:25.876Z,9.52
2023-04-20T20:11:54.707Z,9.51
2023-04-20T20:14:24.089Z,9.51
2023-04-20T20:16:52.242Z,9.56
2023-04-20T20:19:22.167Z,9.64
2023-04-20T20:21:51.078Z,9.67
2023-04-20T20:24:20.752Z,9.70
2023-04-20T20:26:49.360Z,9.75
2023-04-20T20:29:17.823Z,9.80
2023-04-20T20:31:46.627Z,9.83
2023-04-20T20:34:15.200Z,9.81
2023-04-20T20:36:44.953Z,9.83
2023-04-20T20:39:14.119Z,9.81
2023-04-20T20:41:43.873Z,9.77
2023-04-20T20:44:12.613Z,9.76
2023-04-20T20:46:41.365Z,9.77
2023-04-20T20:49:09.867Z,9.75
2023-04-20T20:51:38.462Z,9.71
2023-04-20T20:54:07.018Z,9.70
2023-04-20T20:56:35.533Z,9.72
2023-04-20T20:59:04.070Z,9.68
2023-04-20T21:01:32.715Z,9.68
2023-04-20T21:04:01.573Z,9.70
2023-04-20T21:06:29.977Z,9.74
2023-04-20T21:08:58.715Z,9.64
2023-04-20T21:11:26.836Z,9.59
2023-04-20T21:14:01.721Z,9.58
2023-04-20T21:16:30.536Z,9.58
2023-04-20T21:18:58.609Z,9.58
2023-04-20T21:21:27.645Z,9.57
2023-04-20T21:23:56.357Z,9.65
2023-04-20T21:26:24.820Z,9.62
2023-04-20T21:28:53.309Z,9.68
2023-04-20T21:31:21.570Z,9.72
2023-04-20T21:33:49.769Z,9.74
2023-04-20T21:36:18.207Z,9.75
2023-04-20T21:38:46.712Z,9.75
2023-04-20T21:41:15.213Z,9.72
2023-04-20T21:43:43.768Z,9.78
2023-04-20T21:46:16.601Z,9.77
2023-04-20T21:48:45.216Z,9.87
2023-04-20T21:51:17.861Z,9.85
2023-04-20T21:53:46.452Z,9.86
2023-04-20T21:56:15.414Z,9.90
2023-04-20T21:58:43.921Z,9.91
2023-04-20T22:01:12.453Z,9.91
2023-04-20T22:03:41.118Z,9.91
2023-04-20T22:06:09.852Z,9.85
2023-04-20T22:08:39.851Z,9.82
2023-04-20T22:11:08.619Z,9.85
2023-04-20T22:13:38.049Z,9.88
2023-04-20T22:16:06.917Z,9.90
2023-04-20T22:18:35.406Z,9.92
2023-04-20T22:21:03.816Z,9.91
2023-04-20T22:23:31.886Z,9.89
2023-04-20T22:26:00.550Z,9.90
2023-04-20T22:28:28.769Z,9.91
2023-04-20T22:30:57.299Z,9.89
2023-04-20T22:33:25.825Z,9.90
2023-04-20T22:35:54.084Z,9.87
2023-04-20T22:38:22.748Z,9.83
2023-04-20T22:40:51.213Z,9.80
2023-04-20T22:43:20.211Z,9.81
2023-04-20T22:45:48.912Z,9.78
2023-04-20T22:48:17.695Z,9.79
2023-04-20T22:50:46.181Z,9.72
2023-04-20T22:53:14.969Z,9.74
2023-04-20T22:55:43.340Z,9.78
2023-04-20T22:58:11.790Z,9.76
2023-04-20T23:00:40.857Z,9.77
2023-04-20T23:03:09.572Z,9.75
2023-04-20T23:05:39.190Z,9.71
2023-04-20T23:08:07.801Z,9.74
2023-04-20T23:10:36.357Z,9.72
2023-04-20T23:13:05.291Z,9.76
2023-04-20T23:15:33.463Z,9.73
2023-04-20T23:18:02.391Z,9.75
2023-04-20T23:20:30.939Z,9.69
2023-04-20T23:22:59.029Z,9.64
2023-04-20T23:25:27.105Z,9.68
2023-04-20T23:27:55.430Z,9.70
2023-04-20T23:30:23.821Z,9.67
2023-04-20T23:32:52.379Z,9.63
2023-04-20T23:35:20.935Z,9.59
2023-04-20T23:37:49.483Z,9.58
2023-04-20T23:40:17.689Z,9.56
2023-04-20T23:42:46.195Z,9.55
2023-04-20T23:45:14.423Z,9.58
2023-04-20T23:47:42.673Z,9.55
2023-04-20T23:50:11.259Z,9.48
2023-04-20T23:52:40.629Z,9.45
2023-04-20T23:55:10.424Z,9.40
2023-04-20T23:57:39.942Z,9.39
